Edgewood, NM (87015)

12:59 AM MDT on October 23, 2014 (GMT -0600)
Raven Pine Observatory | Change Station
CLOSE
Current Station
Personal Weather Station
Location: Edgewood, NM
Elevation: 6670 ft
Nearby Weather Stations

Elev 6670 ft 35.06 °N, 106.20 °W | Updated 4 minutes ago

Clear
Clear
54.2 °F
Feels Like 54.2 °F
N
5.0
Wind Variable Wind from SW
Gusts 6.0 mph

Today
High -- | Low -- °F
--% Chance of Precip.
Yesterday
High -- | Low -- °F
Precip. -- in
7:17 AM 6:19 PM
Waning Crescent, 0% visible
Pressure 30.25 in
Visibility 10.0 miles
Clouds Clear
Dew Point 44 °F
Humidity 69%
Rainfall 0.00 in
Snow Depth Not available.
UV 0 out of 12
Pollen 3.20 out of 12
Air Quality Not available.
Flu Activity Sporadic
METAR K0E0 230635Z AUTO 05003KT 10SM CLR 05/03 A3025 RMK AO2 T00450025

More Conditions Fewer Conditions

Pressure 30.25 in
Visibility 10.0 miles
Clouds Clear
Dew Point 44 °F
Humidity 69%
Rainfall 0.00 in
Snow Depth Not available.
UV 0 out of 12
Pollen 3.20 out of 12
Air Quality Not available.
Flu Activity Sporadic
METAR K0E0 230635Z AUTO 05003KT 10SM CLR 05/03 A3025 RMK AO2 T00450025

More Conditions Fewer Conditions

10-Day Weather Forecast

Almanac

Astronomy

Oct. 23, 2014 Rise Set
Actual Time 7:17 AM MDT 6:19 PM MDT
Civil Twilight 6:51 AM MDT 6:45 PM MDT
Nautical Twilight 6:22 AM MDT 7:15 PM MDT
Astronomical Twilight 5:52 AM MDT 7:44 PM MDT
Moon 7:00 AM MDT 6:23 PM MDT
Length of Visible Light 11h 53m
Length of Day
11h 02m
Tomorrow will be 2m 3s shorter.
Waning Crescent, 0% of the Moon is Illuminated
Today
Waning Crescent
Oct 23
New
Oct 30
First Quarter
Nov 6
Full
Nov 14
Last Quarter

Today's Extremes

State Highs State Lows

Community

WunderPhotos

Upload Photos

1,764,194 photos uploaded!

Nearby

Snow Depth

Station Depth Elevation
Santa Fe 0 in 11445 ft
Elk Cabin 1 in 8210 ft
Quemazon 1 in 9500 ft
Wesner Springs 3 in 11120 ft
Senorita Divide #2 0 in 8600 ft

Earthquake Activity

City Distance Mag. Time & Date
No recent earthquake activity has been reported nearby.
Minimum magnitude displayed is 2.5.

Coastal Water Temperatures

Place Temperature
No Stations Reporting

Nearby Weather Stations